< < Back
Terminal Aerodrome Forecast


Current Version              Previous Versions:   1  2  3  4  5  6  7  8  9  

Terminal Aerodrome Forecast

954
FTUS42 KTAE 221700 RRA
TAFABY
TAF
KABY 221741Z 2218/2318 VRB05KT P6SM VCTS BKN050CB
     FM230000 17004KT P6SM SCT050 BKN250
     FM231500 25006KT P6SM SCT250=

Latest METAR

923
SAUS70 KWBC 230600 RRI
MTRABY
METAR KABY 230553Z 00000KT 10SM FEW085 24/23 A3007 RMK AO2 SLP181
T02440228 10300 20244 58006


USA.gov is the U.S. government's official web portal to all federal, state and local government web resources and services.